createdAt,value
2019-02-28T00:01:03.922Z,3.20
2019-02-28T00:06:12.571Z,3.30
2019-02-28T00:11:17.857Z,3.30
2019-02-28T00:16:23.864Z,3.40
2019-02-28T00:21:30.005Z,3.30
2019-02-28T00:26:36.129Z,3.30
2019-02-28T00:31:42.195Z,3.40
2019-02-28T00:36:50.377Z,3.50
2019-02-28T00:41:55.973Z,3.50
2019-02-28T00:47:02.167Z,3.50
2019-02-28T00:52:08.245Z,3.40
2019-02-28T00:57:14.342Z,3.40
2019-02-28T01:02:20.480Z,3.40
2019-02-28T01:07:26.652Z,3.40
2019-02-28T01:12:32.736Z,3.40
2019-02-28T01:17:38.914Z,3.40
2019-02-28T01:22:45.109Z,3.40
2019-02-28T01:27:52.427Z,3.50
2019-02-28T01:32:59.069Z,3.50
2019-02-28T01:38:05.286Z,3.60
2019-02-28T01:43:11.343Z,3.60
2019-02-28T01:48:17.425Z,3.60
2019-02-28T01:53:23.566Z,3.60
2019-02-28T01:58:29.556Z,3.80
2019-02-28T02:03:35.654Z,3.70
2019-02-28T02:08:41.679Z,3.80
2019-02-28T02:13:47.891Z,3.90
2019-02-28T02:18:53.956Z,4.00
2019-02-28T02:24:00.067Z,4.00
2019-02-28T02:29:06.113Z,4.00
2019-02-28T02:34:12.285Z,4.00
2019-02-28T02:39:18.550Z,4.00
2019-02-28T02:44:30.742Z,4.10
2019-02-28T02:49:32.405Z,4.10
2019-02-28T02:54:38.530Z,4.20
2019-02-28T02:59:44.702Z,4.30
2019-02-28T03:04:57.960Z,4.20
2019-02-28T03:09:58.517Z,4.30
2019-02-28T03:15:04.775Z,4.30
2019-02-28T03:20:11.284Z,4.30
2019-02-28T03:25:17.549Z,4.30
2019-02-28T03:30:30.986Z,4.30
2019-02-28T03:35:40.576Z,4.40
2019-02-28T03:40:40.267Z,4.30
2019-02-28T03:45:46.969Z,4.30
2019-02-28T03:50:55.330Z,4.20
2019-02-28T03:56:01.272Z,4.20
2019-02-28T04:01:09.330Z,4.10
2019-02-28T04:06:14.898Z,4.10
2019-02-28T04:11:20.930Z,4.10
2019-02-28T04:16:27.015Z,4.00
2019-02-28T04:21:34.075Z,3.90
2019-02-28T04:26:40.161Z,3.80
2019-02-28T04:31:46.287Z,3.70
2019-02-28T04:36:52.346Z,3.60
2019-02-28T04:41:58.484Z,3.60
2019-02-28T04:47:06.826Z,3.60
2019-02-28T04:52:12.849Z,3.70
2019-02-28T04:57:20.722Z,3.80
2019-02-28T05:02:26.805Z,4.00
2019-02-28T05:07:32.724Z,4.30
2019-02-28T05:12:40.005Z,4.40
2019-02-28T05:17:46.528Z,4.70
2019-02-28T05:22:52.635Z,5.10
2019-02-28T05:27:58.794Z,5.30
2019-02-28T05:33:06.607Z,5.60
2019-02-28T05:38:12.570Z,5.70
2019-02-28T05:43:18.809Z,5.70
2019-02-28T05:48:24.834Z,5.70
2019-02-28T05:53:30.989Z,5.70
2019-02-28T05:58:37.072Z,5.80
2019-02-28T06:03:43.146Z,6.00
2019-02-28T06:08:49.239Z,6.00
2019-02-28T06:13:55.206Z,6.10
2019-02-28T06:19:04.373Z,6.20
2019-02-28T06:24:09.096Z,6.40
2019-02-28T06:29:15.191Z,6.50
2019-02-28T06:34:21.348Z,6.60
2019-02-28T06:39:27.714Z,7.10
2019-02-28T06:44:33.892Z,7.30
2019-02-28T06:49:41.805Z,7.70
2019-02-28T06:54:47.860Z,7.90
2019-02-28T06:59:54.908Z,8.30
2019-02-28T07:05:02.100Z,8.50
2019-02-28T07:10:09.675Z,8.70
2019-02-28T07:15:16.827Z,8.80
2019-02-28T07:20:22.922Z,8.90
2019-02-28T07:25:29.274Z,8.80
2019-02-28T07:30:35.332Z,8.90
2019-02-28T07:35:41.323Z,8.90
2019-02-28T07:40:49.465Z,9.00
2019-02-28T07:45:55.055Z,9.10
2019-02-28T07:51:01.317Z,9.20
2019-02-28T07:56:07.892Z,9.20
2019-02-28T08:01:14.129Z,9.30
2019-02-28T08:06:20.231Z,9.40
2019-02-28T08:11:26.319Z,9.50
2019-02-28T08:16:34.017Z,9.60
2019-02-28T08:21:43.978Z,9.70
2019-02-28T08:26:50.682Z,9.80
2019-02-28T08:31:57.571Z,10.00
2019-02-28T08:37:03.825Z,10.10
2019-02-28T08:42:09.905Z,10.20
2019-02-28T08:47:17.784Z,10.50
2019-02-28T08:52:23.807Z,10.60
2019-02-28T08:57:29.984Z,10.80
2019-02-28T09:02:37.206Z,10.90
2019-02-28T09:07:43.672Z,11.20
2019-02-28T09:12:49.863Z,11.90
2019-02-28T09:17:59.471Z,13.20
2019-02-28T09:23:03.835Z,14.80
2019-02-28T09:28:10.216Z,15.80
2019-02-28T09:33:19.278Z,16.10
2019-02-28T09:38:25.427Z,17.40
2019-02-28T09:43:31.601Z,18.20
2019-02-28T09:48:38.019Z,18.10
2019-02-28T09:53:44.278Z,17.30
2019-02-28T09:58:50.452Z,18.00
2019-02-28T10:03:56.424Z,18.70
2019-02-28T10:09:02.546Z,18.30
2019-02-28T10:14:11.580Z,18.40
2019-02-28T10:19:17.929Z,17.70
2019-02-28T10:24:24.668Z,18.30
2019-02-28T10:29:31.099Z,19.00
2019-02-28T10:34:37.290Z,18.90
2019-02-28T10:39:43.813Z,19.30
2019-02-28T10:44:50.048Z,19.80
2019-02-28T10:49:58.220Z,18.40
2019-02-28T10:55:03.841Z,16.80
2019-02-28T11:00:14.084Z,17.50
2019-02-28T11:05:22.821Z,18.60
2019-02-28T11:10:35.475Z,19.30
2019-02-28T11:15:40.643Z,19.70
2019-02-28T11:20:46.902Z,18.10
2019-02-28T11:25:53.100Z,17.30
2019-02-28T11:30:59.145Z,16.30
2019-02-28T11:36:07.436Z,15.50
2019-02-28T11:41:15.544Z,15.10
2019-02-28T11:46:21.603Z,14.80
2019-02-28T11:51:27.839Z,14.60
2019-02-28T11:56:33.966Z,14.30
2019-02-28T12:01:42.448Z,14.20
2019-02-28T12:06:47.936Z,14.30
2019-02-28T12:11:54.093Z,13.90
2019-02-28T12:17:00.262Z,13.80
2019-02-28T12:22:09.130Z,13.70
2019-02-28T12:27:14.852Z,13.70
2019-02-28T12:32:20.970Z,13.70
2019-02-28T12:37:27.076Z,13.90
2019-02-28T12:42:34.601Z,13.90
2019-02-28T12:47:41.560Z,13.70
2019-02-28T12:52:49.909Z,13.80
2019-02-28T12:57:57.784Z,13.80
2019-02-28T13:03:03.739Z,13.70
2019-02-28T13:08:09.949Z,13.70
2019-02-28T13:13:16.080Z,13.80
2019-02-28T13:18:22.200Z,14.00
2019-02-28T13:23:28.275Z,14.40
2019-02-28T13:28:34.341Z,15.10
2019-02-28T13:33:40.321Z,14.50
2019-02-28T13:38:46.573Z,14.20
2019-02-28T13:43:54.722Z,14.10
2019-02-28T13:49:00.436Z,14.00
2019-02-28T13:54:07.433Z,14.00
2019-02-28T13:59:13.694Z,14.10
2019-02-28T14:04:25.919Z,14.20
2019-02-28T14:09:27.562Z,14.20
2019-02-28T14:14:33.601Z,14.10
2019-02-28T14:19:39.693Z,13.70
2019-02-28T14:24:45.760Z,13.60
2019-02-28T14:29:51.836Z,13.40
2019-02-28T14:34:59.931Z,13.40
2019-02-28T14:40:08.032Z,13.30
2019-02-28T14:45:14.547Z,13.10
2019-02-28T14:50:20.754Z,13.10
2019-02-28T14:55:29.348Z,12.90
2019-02-28T15:00:35.627Z,12.80
2019-02-28T15:05:41.713Z,12.70
2019-02-28T15:10:47.918Z,12.70
2019-02-28T15:15:54.362Z,12.60
2019-02-28T15:21:04.528Z,12.60
2019-02-28T15:26:09.507Z,12.60
2019-02-28T15:31:15.577Z,12.50
2019-02-28T15:36:24.325Z,12.30
2019-02-28T15:41:30.674Z,12.30
2019-02-28T15:46:37.173Z,12.20
2019-02-28T15:51:43.279Z,12.10
2019-02-28T15:56:51.875Z,12.00
2019-02-28T16:01:57.255Z,11.90
2019-02-28T16:07:03.380Z,11.70
2019-02-28T16:12:09.432Z,11.50
2019-02-28T16:17:21.407Z,11.20
2019-02-28T16:22:27.511Z,11.20
2019-02-28T16:27:33.587Z,11.10
2019-02-28T16:32:40.183Z,10.90
2019-02-28T16:37:46.352Z,10.70
2019-02-28T16:42:52.406Z,10.40
2019-02-28T16:48:01.951Z,10.20
2019-02-28T16:53:06.924Z,9.90
2019-02-28T16:58:12.667Z,9.70
2019-02-28T17:03:18.809Z,9.60
2019-02-28T17:08:26.607Z,9.60
2019-02-28T17:13:39.883Z,9.50
2019-02-28T17:18:46.196Z,9.40
2019-02-28T17:23:52.266Z,9.30
2019-02-28T17:29:00.233Z,9.10
2019-02-28T17:34:06.486Z,9.10
2019-02-28T17:39:14.849Z,9.00
2019-02-28T17:45:04.788Z,9.00
2019-02-28T17:51:01.038Z,8.90
2019-02-28T17:56:44.715Z,8.80
2019-02-28T18:02:21.955Z,8.70
2019-02-28T18:08:11.650Z,8.70
2019-02-28T18:13:41.245Z,8.60
2019-02-28T18:19:33.410Z,8.60
2019-02-28T18:24:55.255Z,8.60
2019-02-28T18:30:37.919Z,8.60
2019-02-28T18:35:43.926Z,8.60
2019-02-28T18:40:50.095Z,8.50
2019-02-28T18:45:56.824Z,8.50
2019-02-28T18:51:03.806Z,8.50
2019-02-28T18:56:09.877Z,8.50
2019-02-28T19:01:16.050Z,8.50
2019-02-28T19:06:22.222Z,8.40
2019-02-28T19:11:28.315Z,8.40
2019-02-28T19:16:35.516Z,8.50
2019-02-28T19:21:41.475Z,8.60
2019-02-28T19:26:47.546Z,8.60
2019-02-28T19:31:53.813Z,8.70
2019-02-28T19:36:59.900Z,8.70
2019-02-28T19:42:07.100Z,8.70
2019-02-28T19:47:13.187Z,8.60
2019-02-28T19:52:19.334Z,8.50
2019-02-28T19:57:26.179Z,8.50
2019-02-28T20:02:32.710Z,8.40
2019-02-28T20:07:38.807Z,8.30
2019-02-28T20:12:44.887Z,8.30
2019-02-28T20:17:51.018Z,8.20
2019-02-28T20:22:57.167Z,8.10
2019-02-28T20:28:03.314Z,8.10
2019-02-28T20:33:09.589Z,8.10
2019-02-28T20:38:15.727Z,8.10
2019-02-28T20:43:21.836Z,8.10
2019-02-28T20:48:28.015Z,8.10
2019-02-28T20:53:35.324Z,8.10
2019-02-28T20:58:42.874Z,8.10
2019-02-28T21:03:49.101Z,8.20
2019-02-28T21:08:55.301Z,8.10
2019-02-28T21:14:01.451Z,8.10
2019-02-28T21:19:07.584Z,8.30
2019-02-28T21:24:13.623Z,8.10
2019-02-28T21:29:19.664Z,8.10
2019-02-28T21:34:26.825Z,8.00
2019-02-28T21:39:33.164Z,8.00
2019-02-28T21:44:39.438Z,8.10
2019-02-28T21:49:46.636Z,8.10
2019-02-28T21:54:52.727Z,8.00
2019-02-28T21:59:58.905Z,7.90
2019-02-28T22:05:05.176Z,7.80
2019-02-28T22:10:12.126Z,7.70
2019-02-28T22:15:18.661Z,7.70
2019-02-28T22:20:24.745Z,7.70
2019-02-28T22:25:30.919Z,7.60
2019-02-28T22:31:01.809Z,7.70
2019-02-28T22:36:09.978Z,7.70
2019-02-28T22:41:19.943Z,7.70
2019-02-28T22:46:26.107Z,7.90
2019-02-28T22:51:33.151Z,7.90
2019-02-28T22:56:39.400Z,8.00
2019-02-28T23:01:45.783Z,8.10
2019-02-28T23:06:52.014Z,8.20
2019-02-28T23:11:58.141Z,8.20
2019-02-28T23:17:04.359Z,8.30
2019-02-28T23:22:10.413Z,8.30
2019-02-28T23:27:20.260Z,8.30
2019-02-28T23:32:50.696Z,8.40
2019-02-28T23:37:56.785Z,8.30
2019-02-28T23:43:03.002Z,8.30
2019-02-28T23:48:09.130Z,8.20
2019-02-28T23:53:15.289Z,8.30
2019-02-28T23:58:21.482Z,8.10
